Time;durP1;ratioP1;P1;durP2;ratioP2;P2;SDS_P1;SDS_P2;PMS_P1;PMS_P2;Temp;Humidity;BMP_temperature;BMP_pressure;BME280_temperature;BME280_humidity;BME280_pressure;Samples;Min_cycle;Max_cycle;Signal;HPM_P1;HPM_P2
2021/08/22 00:00:41;;;;;;;9.95;6.05;;;18.90;99.90;;;;;;3493734;41;20032;-86
2021/08/22 00:03:11;;;;;;;10.15;6.40;;;18.80;99.90;;;;;;3484136;41;20109;-84
2021/08/22 00:05:38;;;;;;;10.68;6.45;;;18.90;99.90;;;;;;3499563;41;20041;-85
2021/08/22 00:08:06;;;;;;;13.40;6.43;;;18.90;99.90;;;;;;3491939;41;20038;-86
2021/08/22 00:10:34;;;;;;;11.43;6.05;;;19.00;99.90;;;;;;3502394;41;20033;-85
2021/08/22 00:13:06;;;;;;;10.30;6.68;;;19.00;99.90;;;;;;3501693;41;20413;-87
2021/08/22 00:15:34;;;;;;;9.68;6.30;;;19.00;99.90;;;;;;3490569;41;20062;-86
2021/08/22 00:18:02;;;;;;;13.83;6.77;;;19.00;99.90;;;;;;3488775;41;20058;-87
2021/08/22 00:20:32;;;;;;;11.93;6.50;;;18.90;99.90;;;;;;3491858;41;20294;-88
2021/08/22 00:23:00;;;;;;;13.23;5.75;;;18.90;99.90;;;;;;3473906;41;20413;-87
2021/08/22 00:25:30;;;;;;;11.15;6.50;;;18.90;99.90;;;;;;3481171;41;20058;-87
2021/08/22 00:28:01;;;;;;;10.90;6.63;;;18.90;99.90;;;;;;3463006;41;20083;-87
2021/08/22 00:30:29;;;;;;;11.52;6.45;;;18.90;99.90;;;;;;3462345;41;20293;-87
2021/08/22 00:32:57;;;;;;;13.63;5.90;;;18.90;99.90;;;;;;3464673;41;20206;-86
2021/08/22 00:35:25;;;;;;;9.97;5.67;;;18.90;99.90;;;;;;3470800;41;20039;-86
2021/08/22 00:37:54;;;;;;;10.10;5.80;;;18.90;99.90;;;;;;3449069;41;20312;-86
2021/08/22 00:40:24;;;;;;;10.30;5.43;;;18.90;99.90;;;;;;3455280;41;20411;-87
2021/08/22 00:42:52;;;;;;;9.43;5.70;;;18.80;99.90;;;;;;3461318;41;20035;-88
2021/08/22 00:45:20;;;;;;;9.82;5.30;;;18.90;99.90;;;;;;3458515;41;20079;-86
2021/08/22 00:47:50;;;;;;;10.65;6.35;;;18.90;99.90;;;;;;3450305;41;20078;-88
2021/08/22 00:50:19;;;;;;;11.38;6.13;;;18.80;99.90;;;;;;3464484;41;20070;-87
2021/08/22 00:52:50;;;;;;;12.05;4.95;;;18.90;99.90;;;;;;3467736;41;20393;-87
2021/08/22 00:55:20;;;;;;;10.27;5.95;;;18.80;99.90;;;;;;3467118;41;20094;-87
2021/08/22 00:57:50;;;;;;;9.98;5.38;;;18.80;99.90;;;;;;3463119;41;20047;-87
2021/08/22 01:00:19;;;;;;;9.38;5.68;;;18.70;99.90;;;;;;3471470;41;20081;-86
2021/08/22 01:03:01;;;;;;;8.65;5.70;;;18.80;99.90;;;;;;3472253;41;20062;-87
2021/08/22 01:05:41;;;;;;;9.77;5.28;;;18.70;99.90;;;;;;3470053;41;20095;-84
2021/08/22 01:08:36;;;;;;;7.78;5.20;;;18.70;99.90;;;;;;3543769;23;20042;-85
2021/08/22 01:11:12;;;;;;;9.55;5.70;;;18.70;99.90;;;;;;3611018;22;20056;-87
2021/08/22 01:13:45;;;;;;;10.80;5.45;;;18.70;99.90;;;;;;3563048;40;20043;-90
2021/08/22 01:16:23;;;;;;;10.15;5.53;;;18.70;99.90;;;;;;3564345;40;20423;-87
2021/08/22 01:19:18;;;;;;;8.98;5.50;;;18.70;99.90;;;;;;3643074;23;20103;-88
2021/08/22 01:21:48;;;;;;;9.02;5.97;;;18.70;99.90;;;;;;3572527;40;20030;-88
2021/08/22 01:24:21;;;;;;;11.52;5.53;;;18.60;99.90;;;;;;3582254;40;20543;-88
2021/08/22 01:26:53;;;;;;;13.43;6.07;;;18.60;99.90;;;;;;3572160;40;20358;-88
2021/08/22 01:29:51;;;;;;;10.20;5.82;;;18.60;99.90;;;;;;3605558;23;20041;-85
2021/08/22 01:35:13;;;;;;;8.27;5.68;;;18.50;99.90;;;;;;3582373;40;20041;-87
2021/08/22 01:37:55;;;;;;;7.85;5.38;;;18.60;99.90;;;;;;3562312;40;20034;-87
2021/08/22 01:40:24;;;;;;;7.57;4.97;;;18.60;99.90;;;;;;3552145;40;20045;-86
2021/08/22 01:42:52;;;;;;;;;;;18.60;99.90;;;;;;3549772;40;20331;-87
2021/08/22 01:45:22;;;;;;;10.63;5.88;;;18.50;99.90;;;;;;3533057;40;19985;-86
2021/08/22 01:47:51;;;;;;;9.85;6.45;;;18.50;99.90;;;;;;3549798;40;20162;-87
2021/08/22 01:50:24;;;;;;;11.45;5.82;;;18.50;99.90;;;;;;3523596;40;20051;-86
2021/08/22 01:52:57;;;;;;;8.70;5.68;;;18.50;99.90;;;;;;3536219;40;20091;-86
2021/08/22 01:58:19;;;;;;;8.85;5.80;;;18.50;99.90;;;;;;3582113;40;20045;-87
2021/08/22 02:00:50;;;;;;;8.00;5.33;;;18.40;99.90;;;;;;3562124;40;20049;-86
2021/08/22 02:03:26;;;;;;;10.30;5.40;;;18.30;99.90;;;;;;3548317;40;20027;-86
2021/08/22 02:06:04;;;;;;;11.32;6.88;;;18.20;99.90;;;;;;3522016;41;20051;-88
2021/08/22 02:08:35;;;;;;;10.88;5.88;;;18.20;99.90;;;;;;3533012;40;20080;-87
2021/08/22 02:11:11;;;;;;;8.98;6.05;;;18.10;99.90;;;;;;3532256;40;20075;-87
2021/08/22 02:13:42;;;;;;;13.68;6.53;;;18.10;99.90;;;;;;3522063;40;20064;-88
2021/08/22 02:16:14;;;;;;;9.32;5.80;;;18.10;99.90;;;;;;3512449;41;20032;-87
2021/08/22 02:18:43;;;;;;;9.73;5.90;;;18.10;99.90;;;;;;3496344;41;20064;-86
2021/08/22 02:21:12;;;;;;;11.50;6.05;;;18.10;99.90;;;;;;3503938;41;20053;-88
2021/08/22 02:23:40;;;;;;;11.90;7.90;;;18.10;99.90;;;;;;3502412;41;20134;-88
2021/08/22 02:26:10;;;;;;;13.48;7.60;;;18.10;99.90;;;;;;3482769;41;20322;-88
2021/08/22 02:28:40;;;;;;;9.45;6.35;;;18.20;99.90;;;;;;3477166;41;20066;-87
2021/08/22 02:31:15;;;;;;;8.88;5.68;;;18.20;99.90;;;;;;3477248;41;20042;-88
2021/08/22 02:33:43;;;;;;;10.52;6.22;;;18.30;99.90;;;;;;3466119;41;20042;-89
2021/08/22 02:36:15;;;;;;;12.52;6.40;;;18.30;99.90;;;;;;3464468;41;20087;-91
2021/08/22 02:38:42;;;;;;;11.13;6.50;;;18.40;99.90;;;;;;3475585;41;20042;-87
2021/08/22 02:41:10;;;;;;;8.82;5.90;;;18.40;99.90;;;;;;3477030;41;20027;-87
2021/08/22 02:43:37;;;;;;;15.93;6.00;;;18.40;99.90;;;;;;3465042;41;20075;-86
2021/08/22 02:46:05;;;;;;;12.23;6.13;;;18.40;99.90;;;;;;3492569;41;20060;-87
2021/08/22 02:48:33;;;;;;;13.13;6.38;;;18.40;99.90;;;;;;3518434;41;20056;-86
2021/08/22 02:51:00;;;;;;;9.88;6.43;;;18.30;99.90;;;;;;3497630;41;20032;-89
2021/08/22 02:53:33;;;;;;;10.23;6.10;;;18.30;99.90;;;;;;3503021;41;20063;-88
2021/08/22 02:56:01;;;;;;;9.90;6.40;;;18.30;99.90;;;;;;3494722;41;20491;-86
2021/08/22 02:58:28;;;;;;;8.43;5.75;;;18.20;99.90;;;;;;3492102;41;20085;-87
2021/08/22 03:00:56;;;;;;;11.20;7.32;;;18.10;99.90;;;;;;3465216;41;20039;-87
2021/08/22 03:03:24;;;;;;;15.25;6.90;;;18.10;99.90;;;;;;3476571;41;20038;-85
2021/08/22 03:05:54;;;;;;;13.88;6.30;;;18.00;99.90;;;;;;3471571;41;20062;-86
2021/08/22 03:08:21;;;;;;;13.88;6.40;;;17.90;99.90;;;;;;3485997;41;20057;-86
2021/08/22 03:10:50;;;;;;;10.93;6.30;;;17.90;99.90;;;;;;3482691;41;20057;-87
2021/08/22 03:13:19;;;;;;;10.48;6.28;;;17.80;99.90;;;;;;3493832;41;20301;-88
2021/08/22 03:15:46;;;;;;;11.75;6.57;;;17.80;99.90;;;;;;3510411;40;20049;-86
2021/08/22 03:18:14;;;;;;;11.20;6.45;;;17.80;99.90;;;;;;3493671;41;20057;-87
2021/08/22 03:20:41;;;;;;;10.07;6.30;;;17.80;99.90;;;;;;3490427;41;20045;-85
2021/08/22 03:23:09;;;;;;;8.13;5.72;;;17.70;99.90;;;;;;3491155;41;20413;-87
2021/08/22 03:25:37;;;;;;;10.52;6.18;;;17.70;99.90;;;;;;3485410;41;20057;-87
2021/08/22 03:28:06;;;;;;;8.43;6.05;;;17.60;99.90;;;;;;3484298;41;20085;-87
2021/08/22 03:30:33;;;;;;;12.20;6.70;;;17.60;99.90;;;;;;3489291;41;20101;-87
2021/08/22 03:33:02;;;;;;;11.05;6.43;;;17.60;99.90;;;;;;3490735;41;20069;-86
2021/08/22 03:35:32;;;;;;;9.73;7.00;;;17.50;99.90;;;;;;3507771;41;20092;-88
2021/08/22 03:38:00;;;;;;;11.10;6.40;;;17.50;99.90;;;;;;3502954;40;20467;-88
2021/08/22 03:40:27;;;;;;;12.63;6.78;;;17.50;99.90;;;;;;3495290;40;20038;-88
2021/08/22 03:42:55;;;;;;;13.70;6.70;;;17.50;99.90;;;;;;3530331;40;20063;-86
2021/08/22 03:45:25;;;;;;;10.43;6.53;;;17.40;99.90;;;;;;3530704;40;20358;-88
2021/08/22 03:47:52;;;;;;;11.65;6.70;;;17.40;99.90;;;;;;3527755;40;20083;-85
2021/08/22 03:50:21;;;;;;;8.77;6.03;;;17.40;99.90;;;;;;3530777;40;20063;-88
2021/08/22 03:52:52;;;;;;;10.63;6.30;;;17.30;99.90;;;;;;3536960;40;20036;-87
2021/08/22 03:55:20;;;;;;;9.32;6.13;;;17.30;99.90;;;;;;3530158;40;20075;-87
2021/08/22 03:57:48;;;;;;;9.57;6.63;;;17.20;99.90;;;;;;3536245;40;20067;-87
2021/08/22 04:00:17;;;;;;;9.98;5.97;;;17.20;99.90;;;;;;3529910;40;20074;-86
2021/08/22 04:02:46;;;;;;;10.20;5.88;;;17.20;99.90;;;;;;3529049;40;20344;-86
2021/08/22 04:05:34;;;;;;;9.13;6.18;;;17.10;99.90;;;;;;3533198;40;20401;-87
2021/08/22 04:08:07;;;;;;;8.93;6.18;;;17.10;99.90;;;;;;3543059;40;20059;-89
2021/08/22 04:10:36;;;;;;;12.63;6.47;;;17.20;99.90;;;;;;3534598;40;20030;-88
2021/08/22 04:13:08;;;;;;;12.23;5.93;;;17.20;99.90;;;;;;3536427;40;20032;-87
2021/08/22 04:15:35;;;;;;;13.68;6.28;;;17.20;99.90;;;;;;3524955;40;20054;-87
2021/08/22 04:18:05;;;;;;;11.20;6.28;;;17.20;99.90;;;;;;3524745;40;20048;-87
2021/08/22 04:20:34;;;;;;;8.98;6.10;;;17.20;99.90;;;;;;3513614;40;20102;-88
2021/08/22 04:23:03;;;;;;;9.77;6.32;;;17.30;99.90;;;;;;3490050;41;20051;-87
2021/08/22 04:25:30;;;;;;;10.25;5.85;;;17.30;99.90;;;;;;3519659;41;20044;-87
2021/08/22 04:27:59;;;;;;;11.40;5.80;;;17.30;99.90;;;;;;3507273;40;20041;-86
2021/08/22 04:30:26;;;;;;;9.27;6.13;;;17.40;99.90;;;;;;3510545;40;20064;-88
2021/08/22 04:35:36;;;;;;;8.43;5.38;;;17.40;99.90;;;;;;3553030;40;20422;-87
2021/08/22 04:38:05;;;;;;;10.95;6.18;;;17.40;99.90;;;;;;3552662;40;20087;-84
2021/08/22 04:40:33;;;;;;;;;;;17.40;99.90;;;;;;3566933;40;20074;-87
2021/08/22 04:43:00;;;;;;;7.70;5.55;;;17.50;99.90;;;;;;3550864;40;20042;-87
2021/08/22 04:45:28;;;;;;;10.98;6.63;;;17.50;99.90;;;;;;3559601;40;20050;-85
2021/08/22 04:47:56;;;;;;;9.43;5.55;;;17.50;99.90;;;;;;3552411;40;20046;-87
2021/08/22 04:50:25;;;;;;;8.52;5.47;;;17.70;99.90;;;;;;3562022;40;20041;-86
2021/08/22 04:52:54;;;;;;;8.35;5.60;;;17.80;99.90;;;;;;3553779;40;20037;-89
2021/08/22 04:55:22;;;;;;;10.00;5.65;;;17.90;99.90;;;;;;3554676;40;20037;-90
2021/08/22 04:57:50;;;;;;;7.82;5.60;;;18.00;99.90;;;;;;3546554;40;20073;-89
2021/08/22 05:06:04;;;;;;;9.93;5.20;;;18.40;99.90;;;;;;3582374;40;20029;-87
2021/08/22 05:11:25;;;;;;;8.93;5.72;;;18.60;99.90;;;;;;3567465;40;20070;-86
2021/08/22 05:13:52;;;;;;;9.55;5.30;;;18.60;99.90;;;;;;3550377;40;20074;-85
2021/08/22 05:16:20;;;;;;;12.70;5.55;;;18.70;99.90;;;;;;3568527;40;20086;-85
2021/08/22 05:18:48;;;;;;;9.30;5.10;;;18.80;99.90;;;;;;3539187;40;20081;-84
2021/08/22 05:21:16;;;;;;;;;;;18.90;99.90;;;;;;3545610;40;20446;-85
2021/08/22 05:23:44;;;;;;;7.05;4.60;;;18.90;99.90;;;;;;3530742;40;19970;-86
2021/08/22 05:26:14;;;;;;;9.55;5.07;;;18.90;99.90;;;;;;3537245;40;20086;-85
2021/08/22 05:28:43;;;;;;;8.53;4.90;;;19.10;99.90;;;;;;3540070;40;20067;-85
2021/08/22 05:31:10;;;;;;;9.80;4.72;;;19.10;99.90;;;;;;3535565;40;20083;-84
2021/08/22 05:33:38;;;;;;;7.20;5.05;;;19.10;99.90;;;;;;3529415;40;20476;-84
2021/08/22 05:36:34;;;;;;;6.13;4.20;;;19.20;99.90;;;;;;3517136;40;20366;-86
2021/08/22 05:39:02;;;;;;;6.80;4.50;;;19.20;99.90;;;;;;3510271;41;20092;-87
2021/08/22 05:41:29;;;;;;;8.48;4.53;;;19.30;99.90;;;;;;3502291;41;20364;-85
2021/08/22 05:43:58;;;;;;;6.40;4.55;;;19.40;99.90;;;;;;3475718;41;20109;-86
2021/08/22 05:46:26;;;;;;;9.43;4.28;;;19.50;99.90;;;;;;3468218;41;20054;-84
2021/08/22 05:48:53;;;;;;;10.48;4.50;;;19.50;99.90;;;;;;3470825;41;20038;-85
2021/08/22 05:51:21;;;;;;;10.73;4.03;;;19.70;99.90;;;;;;3489305;41;20056;-85
2021/08/22 05:53:50;;;;;;;7.20;4.30;;;19.90;99.90;;;;;;3476983;41;20041;-86
2021/08/22 05:56:21;;;;;;;;;;;20.00;99.90;;;;;;3488701;41;20084;-84
2021/08/22 05:58:52;;;;;;;7.90;4.30;;;20.10;99.90;;;;;;3491811;41;19972;-85
2021/08/22 06:01:20;;;;;;;9.23;4.43;;;20.30;99.90;;;;;;3490543;41;20458;-86
2021/08/22 06:03:49;;;;;;;8.93;4.90;;;20.40;99.90;;;;;;3489857;41;20090;-87
2021/08/22 06:06:17;;;;;;;9.25;4.72;;;20.50;99.90;;;;;;3455518;41;20083;-87
2021/08/22 06:08:44;;;;;;;9.85;5.05;;;20.70;99.90;;;;;;3453899;41;20099;-87
2021/08/22 06:11:12;;;;;;;8.60;4.70;;;20.80;99.90;;;;;;3452233;41;20043;-89
2021/08/22 06:16:47;;;;;;;8.98;4.43;;;20.90;99.90;;;;;;3508020;41;20072;-87
2021/08/22 06:19:18;;;;;;;7.30;4.15;;;21.10;99.90;;;;;;3510735;41;20073;-88
2021/08/22 06:21:59;;;;;;;9.48;4.63;;;21.30;99.90;;;;;;3495301;41;20103;-88
2021/08/22 06:24:29;;;;;;;6.43;4.35;;;21.30;99.90;;;;;;3491512;41;20096;-86
2021/08/22 06:27:03;;;;;;;7.00;4.32;;;21.30;99.90;;;;;;3492475;41;20077;-87
2021/08/22 06:29:32;;;;;;;8.77;4.72;;;21.20;99.90;;;;;;3501859;41;20067;-87
2021/08/22 06:32:06;;;;;;;11.80;4.57;;;21.10;99.90;;;;;;3523161;40;20039;-88
2021/08/22 06:34:33;;;;;;;10.30;4.55;;;20.90;99.90;;;;;;3522741;40;20430;-87
2021/08/22 06:37:05;;;;;;;8.43;4.50;;;20.90;99.90;;;;;;3529958;40;20062;-87
2021/08/22 06:39:38;;;;;;;10.27;4.90;;;20.90;99.90;;;;;;3549305;40;20079;-87
2021/08/22 06:44:56;;;;;;;10.23;4.90;;;20.60;99.90;;;;;;3568203;40;20405;-87
2021/08/22 06:47:25;;;;;;;8.95;4.93;;;20.70;99.90;;;;;;3571249;40;20045;-86
2021/08/22 06:49:53;;;;;;;7.82;4.82;;;20.60;99.90;;;;;;3561532;40;20031;-88
2021/08/22 06:52:23;;;;;;;8.07;5.28;;;20.60;99.90;;;;;;3532181;40;20040;-91
2021/08/22 06:54:51;;;;;;;10.05;4.28;;;20.50;99.90;;;;;;3532861;40;20051;-89
2021/08/22 06:57:19;;;;;;;7.63;4.83;;;20.50;99.90;;;;;;3631287;23;20045;-91
2021/08/22 06:59:51;;;;;;;8.68;4.63;;;20.40;99.90;;;;;;3677030;22;20553;-98
2021/08/22 07:02:30;;;;;;;8.50;4.22;;;20.30;99.90;;;;;;3675277;22;20871;-90
2021/08/22 07:04:58;;;;;;;8.30;4.70;;;20.30;99.90;;;;;;3716124;22;20073;-91
2021/08/22 07:10:19;;;;;;;10.85;5.18;;;20.40;99.90;;;;;;3580356;40;20054;-87
2021/08/22 07:12:47;;;;;;;10.60;4.35;;;20.50;99.90;;;;;;3569400;40;20115;-87
2021/08/22 07:15:15;;;;;;;6.43;4.20;;;20.60;99.90;;;;;;3561924;40;20094;-86
2021/08/22 07:17:44;;;;;;;9.95;4.22;;;20.70;99.90;;;;;;3835735;23;20033;-81
2021/08/22 08:08:06;;;;;;;14.32;5.25;;;20.70;99.90;;;;;;1360687;22;20184;-89
2021/08/22 08:13:24;;;;;;;7.57;4.82;;;20.70;99.90;;;;;;3584171;40;20038;-86
2021/08/22 08:15:55;;;;;;;7.68;4.95;;;20.80;99.90;;;;;;3782327;22;20042;-89
2021/08/22 08:18:26;;;;;;;9.48;4.78;;;20.90;99.90;;;;;;1351218;22;20160;31
2021/08/22 08:20:57;;;;;;;7.60;4.05;;;21.10;99.90;;;;;;3660781;23;20038;-90
2021/08/22 08:31:40;;;;;;;8.13;4.78;;;20.80;99.90;;;;;;3603498;22;20054;-91
2021/08/22 08:34:13;;;;;;;10.32;4.57;;;21.00;99.90;;;;;;3785947;23;20055;-87
2021/08/22 08:36:41;;;;;;;9.07;5.10;;;21.20;99.90;;;;;;3564452;40;20026;-88
2021/08/22 08:44:54;;;;;;;8.98;4.90;;;21.40;99.90;;;;;;3582940;40;20041;-91
2021/08/22 08:47:22;;;;;;;10.02;5.05;;;21.40;99.90;;;;;;3561575;40;20042;-88
2021/08/22 08:49:59;;;;;;;8.77;4.68;;;21.50;99.90;;;;;;3561414;40;20039;-85
2021/08/22 09:03:43;;;;;;;9.25;4.85;;;22.00;99.90;;;;;;3643752;22;20490;-92
2021/08/22 09:06:44;;;;;;;7.75;5.13;;;22.00;99.90;;;;;;3562855;40;20067;-88
2021/08/22 09:15:33;;;;;;;8.15;4.38;;;22.30;99.90;;;;;;3686364;22;20033;-90
2021/08/22 09:19:05;;;;;;;10.00;4.63;;;22.20;99.90;;;;;;3594244;22;20059;-89
2021/08/22 10:21:27;;;;;;;8.35;4.53;;;23.40;98.30;;;;;;5775614;23;20264;-89
2021/08/22 10:24:10;;;;;;;7.47;3.70;;;23.50;98.20;;;;;;3667830;22;20048;-84
2021/08/22 10:26:56;;;;;;;7.10;3.50;;;23.20;97.90;;;;;;3569064;40;20081;-87
2021/08/22 10:29:31;;;;;;;7.75;3.67;;;22.90;98.40;;;;;;3551651;40;20030;-88
2021/08/22 10:32:13;;;;;;;7.57;3.60;;;22.80;98.70;;;;;;3659186;23;20076;-85
2021/08/22 10:34:48;;;;;;;6.60;3.72;;;22.70;99.20;;;;;;3569875;40;20058;-85
2021/08/22 10:37:33;;;;;;;6.90;3.92;;;22.70;99.40;;;;;;3606826;23;20057;-85
2021/08/22 10:40:34;;;;;;;9.80;4.13;;;22.80;99.20;;;;;;3543053;40;20087;-85
2021/08/22 10:43:42;;;;;;;6.65;3.63;;;22.90;98.90;;;;;;3543640;40;20045;-87
2021/08/22 10:46:47;;;;;;;6.38;3.58;;;23.10;98.70;;;;;;3544921;40;20059;-86
2021/08/22 10:49:17;;;;;;;7.05;3.70;;;23.20;98.40;;;;;;3512556;41;20087;-85
2021/08/22 10:52:21;;;;;;;7.25;3.47;;;23.20;98.10;;;;;;3508960;41;20044;-84
2021/08/22 10:55:25;;;;;;;7.30;3.65;;;23.20;98.00;;;;;;3500723;41;20080;-87
2021/08/22 10:57:55;;;;;;;5.97;3.30;;;23.20;97.90;;;;;;3473909;41;20059;-85
2021/08/22 11:00:27;;;;;;;6.85;3.67;;;23.40;97.80;;;;;;3470286;41;20086;-85
2021/08/22 11:02:56;;;;;;;7.95;3.20;;;23.70;97.30;;;;;;3471179;41;20083;-85
2021/08/22 11:05:24;;;;;;;;;;;24.00;96.70;;;;;;3464863;41;20379;-85
2021/08/22 12:11:44;;;;;;;7.05;3.08;;;27.20;74.50;;;;;;1211216;22;21378;-89
2021/08/22 13:32:32;;;;;;;4.50;2.50;;;25.30;83.50;;;;;;1286625;22;21401;-86
2021/08/22 13:40:55;;;;;;;6.55;2.80;;;25.00;85.80;;;;;;882150;22;20293;-90
2021/08/22 13:46:40;;;;;;;5.00;2.92;;;25.30;85.00;;;;;;1469333;22;20282;-91
2021/08/22 14:13:40;;;;;;;6.47;2.95;;;26.70;81.60;;;;;;1188706;22;20288;-91
2021/08/22 14:19:30;;;;;;;6.90;2.95;;;26.90;80.90;;;;;;715839;22;20275;-92
2021/08/22 15:21:09;;;;;;;6.47;3.65;;;31.40;63.20;;;;;;2063968;22;20156;-92
2021/08/22 15:26:37;;;;;;;5.78;3.05;;;31.60;61.70;;;;;;3590590;40;20022;-87
2021/08/22 15:32:52;;;;;;;4.55;2.80;;;33.40;58.80;;;;;;3590552;40;20030;-83
2021/08/22 15:38:18;;;;;;;4.80;3.42;;;33.40;57.10;;;;;;3580507;40;20022;-83
2021/08/22 15:55:23;;;;;;;6.10;4.07;;;31.20;62.10;;;;;;3562307;40;20053;-85
2021/08/22 16:03:56;;;;;;;7.65;4.88;;;30.60;62.70;;;;;;4107657;23;20054;-92
2021/08/22 16:06:52;;;;;;;8.75;5.15;;;29.40;65.80;;;;;;1475787;23;20163;-91
2021/08/22 17:59:01;;;;;;;11.88;8.23;;;18.80;99.90;;;;;;5512504;23;20035;-94
2021/08/22 18:01:58;;;;;;;12.63;7.43;;;18.60;99.90;;;;;;1234775;23;21353;-93
2021/08/22 18:04:36;;;;;;;10.32;4.55;;;18.30;99.90;;;;;;1264306;23;21287;-91
2021/08/22 18:31:41;;;;;;;9.85;2.58;;;16.50;99.90;;;;;;1204214;23;20249;-91
2021/08/22 18:34:43;;;;;;;4.78;1.80;;;16.50;99.90;;;;;;3621146;23;20944;-89
2021/08/22 18:40:35;;;;;;;17.00;2.30;;;16.60;99.90;;;;;;910277;23;21125;-90
2021/08/22 18:43:22;;;;;;;9.27;2.35;;;16.50;99.90;;;;;;3718724;23;20062;-90
2021/08/22 18:51:47;;;;;;;;;;;16.40;99.90;;;;;;3717145;23;20064;-91
2021/08/22 19:28:00;;;;;;;20.55;9.50;;;16.60;99.90;;;;;;1312002;23;20268;-96
2021/08/22 19:52:21;;;;;;;19.85;10.05;;;16.20;99.90;;;;;;1350160;23;20273;-96
2021/08/22 19:55:17;;;;;;;19.20;10.40;;;16.30;99.90;;;;;;1201423;23;21369;-93
2021/08/22 20:01:05;;;;;;;49.88;16.10;;;16.30;99.90;;;;;;1196906;23;21338;-90
2021/08/22 20:54:17;;;;;;;17.73;7.50;;;16.20;99.90;;;;;;1193784;23;21528;-91
2021/08/22 20:56:45;;;;;;;16.25;7.43;;;16.10;99.90;;;;;;1551987;23;20180;-90
2021/08/22 21:23:00;;;;;;;20.88;8.63;;;16.40;99.90;;;;;;1274660;23;21383;-92
2021/08/22 21:51:20;;;;;;;50.47;18.27;;;16.30;99.90;;;;;;1239391;23;21390;-92
2021/08/22 21:59:42;;;;;;;39.65;16.30;;;16.30;99.90;;;;;;3553363;40;20023;-85
2021/08/22 22:05:18;;;;;;;53.15;17.27;;;16.20;99.90;;;;;;3573649;23;20950;-93
2021/08/22 22:38:26;;;;;;;43.40;13.90;;;16.20;99.90;;;;;;1311092;23;20166;-93
2021/08/22 22:44:08;;;;;;;80.63;17.42;;;16.10;99.90;;;;;;1278056;23;21326;-90
2021/08/22 22:52:40;;;;;;;36.13;12.40;;;16.10;99.90;;;;;;1202756;23;21421;-92
2021/08/22 23:04:26;;;;;;;34.90;11.27;;;16.10;99.90;;;;;;1439577;23;21461;-90
2021/08/22 23:07:22;;;;;;;43.22;13.63;;;16.20;99.90;;;;;;3629727;23;20899;-91
2021/08/22 23:10:16;;;;;;;27.20;10.32;;;16.20;99.90;;;;;;1204144;23;21509;-92
2021/08/22 23:45:33;;;;;;;19.70;8.30;;;16.00;99.90;;;;;;3558163;40;20034;-82
